createdAt,value
2019-04-21T00:01:57.829Z,7.33
2019-04-21T00:04:40.544Z,8.47
2019-04-21T00:07:31.604Z,9.70
2019-04-21T00:12:20.665Z,8.00
2019-04-21T00:14:43.629Z,11.00
2019-04-21T00:17:06.020Z,6.83
2019-04-21T00:19:44.668Z,7.17
2019-04-21T00:22:29.343Z,7.27
2019-04-21T00:24:56.834Z,7.87
2019-04-21T00:27:28.388Z,9.20
2019-04-21T00:30:08.748Z,9.20
2019-04-21T00:32:29.214Z,7.80
2019-04-21T00:34:53.425Z,8.87
2019-04-21T00:37:29.286Z,8.40
2019-04-21T00:40:14.453Z,7.73
2019-04-21T00:42:37.407Z,6.97
2019-04-21T00:45:03.515Z,10.47
2019-04-21T00:47:34.140Z,7.10
2019-04-21T00:50:05.066Z,7.43
2019-04-21T00:52:51.262Z,6.17
2019-04-21T00:57:54.230Z,7.97
2019-04-21T01:00:17.725Z,7.83
2019-04-21T01:02:49.842Z,7.00
2019-04-21T01:05:37.052Z,8.13
2019-04-21T01:07:48.263Z,5.90
2019-04-21T01:10:09.573Z,6.67
2019-04-21T01:16:10.176Z,6.97
2019-04-21T01:18:41.029Z,7.73
2019-04-21T01:20:45.825Z,6.40
2019-04-21T01:23:14.708Z,6.93
2019-04-21T01:25:57.165Z,8.00
2019-04-21T01:28:29.326Z,6.70
2019-04-21T01:31:07.459Z,6.87
2019-04-21T01:33:41.187Z,8.40
2019-04-21T01:36:05.449Z,15.03
2019-04-21T01:38:40.324Z,7.80
2019-04-21T01:41:08.378Z,8.03
2019-04-21T01:43:57.476Z,10.17
2019-04-21T01:46:25.763Z,12.17
2019-04-21T01:48:52.531Z,8.27
2019-04-21T01:51:28.146Z,7.97
2019-04-21T01:54:09.353Z,8.60
2019-04-21T01:56:51.282Z,6.90
2019-04-21T01:59:08.943Z,7.87
2019-04-21T02:01:52.458Z,6.13
2019-04-21T02:04:29.441Z,9.60
2019-04-21T02:06:59.407Z,8.07
2019-04-21T02:09:23.288Z,6.40
2019-04-21T02:12:00.083Z,10.20
2019-04-21T02:14:31.150Z,8.93
2019-04-21T02:16:59.323Z,6.30
2019-04-21T02:19:23.411Z,10.00
2019-04-21T02:21:51.909Z,7.70
2019-04-21T02:24:34.924Z,8.20
2019-04-21T02:26:59.222Z,7.67
2019-04-21T02:29:34.770Z,8.23
2019-04-21T02:32:08.954Z,10.50
2019-04-21T02:37:28.112Z,7.87
2019-04-21T02:39:48.938Z,8.20
2019-04-21T02:44:43.004Z,8.83
2019-04-21T02:47:03.704Z,8.57
2019-04-21T02:54:53.911Z,8.27
2019-04-21T02:57:18.628Z,7.07
2019-04-21T03:00:00.445Z,10.50
2019-04-21T03:05:01.866Z,7.70
2019-04-21T03:10:02.257Z,6.63
2019-04-21T03:12:32.075Z,6.83
2019-04-21T03:22:39.379Z,9.10
2019-04-21T03:27:48.774Z,8.53
2019-04-21T03:30:14.259Z,8.23
2019-04-21T03:33:15.452Z,6.70
2019-04-21T03:40:07.933Z,8.40
2019-04-21T03:42:42.664Z,8.90
2019-04-21T03:45:18.705Z,7.47
2019-04-21T03:47:34.563Z,11.03
2019-04-21T04:00:45.078Z,7.87
2019-04-21T04:03:23.705Z,10.50
2019-04-21T04:06:01.986Z,7.57
2019-04-21T04:08:31.927Z,7.43
2019-04-21T04:11:03.055Z,10.57
2019-04-21T04:13:34.115Z,8.83
2019-04-21T04:15:56.222Z,8.63
2019-04-21T04:18:39.259Z,10.07
2019-04-21T04:20:51.666Z,8.27
2019-04-21T04:23:31.548Z,7.53
2019-04-21T04:25:59.174Z,7.43
2019-04-21T04:28:33.678Z,8.67
2019-04-21T04:31:30.140Z,7.77
2019-04-21T04:33:37.319Z,6.83
2019-04-21T04:38:41.500Z,12.87
2019-04-21T04:41:06.343Z,6.77
2019-04-21T04:46:00.491Z,7.67
2019-04-21T04:53:40.478Z,7.37
2019-04-21T04:56:07.707Z,7.30
2019-04-21T05:01:16.929Z,8.90
2019-04-21T05:03:44.420Z,7.53
2019-04-21T05:14:03.061Z,8.67
2019-04-21T05:16:41.105Z,10.10
2019-04-21T05:19:08.444Z,8.87
2019-04-21T05:23:47.008Z,8.90
2019-04-21T05:26:09.809Z,7.57
2019-04-21T05:28:40.916Z,8.83
2019-04-21T05:31:25.644Z,9.80
2019-04-21T05:34:03.093Z,9.43
2019-04-21T05:36:34.332Z,8.77
2019-04-21T05:39:10.820Z,7.80
2019-04-21T05:41:31.397Z,7.17
2019-04-21T05:44:13.238Z,10.23
2019-04-21T05:46:53.486Z,6.47
2019-04-21T05:49:20.573Z,9.87
2019-04-21T05:51:59.763Z,8.37
2019-04-21T05:54:53.071Z,8.17
2019-04-21T05:57:08.643Z,8.20
2019-04-21T05:59:32.689Z,7.23
2019-04-21T06:02:17.427Z,7.43
2019-04-21T06:05:01.941Z,12.40
2019-04-21T06:07:13.289Z,7.93
2019-04-21T06:09:49.925Z,9.27
2019-04-21T06:12:08.927Z,7.07
2019-04-21T06:14:43.951Z,8.83
2019-04-21T06:17:19.157Z,6.43
2019-04-21T06:22:11.986Z,6.90
2019-04-21T06:24:54.260Z,7.57
2019-04-21T06:27:18.917Z,10.03
2019-04-21T06:29:44.839Z,8.27
2019-04-21T06:32:30.404Z,8.37
2019-04-21T06:34:59.113Z,8.30
2019-04-21T06:40:03.206Z,7.87
2019-04-21T06:42:13.606Z,7.43
2019-04-21T06:44:53.763Z,6.90
2019-04-21T06:47:26.036Z,7.80
2019-04-21T06:49:45.163Z,7.83
2019-04-21T06:52:42.384Z,8.53
2019-04-21T06:57:23.182Z,7.10
2019-04-21T06:59:45.215Z,7.07
2019-04-21T07:02:36.480Z,8.60
2019-04-21T07:07:17.183Z,7.50
2019-04-21T07:09:57.261Z,8.60
2019-04-21T07:12:18.749Z,7.80
2019-04-21T07:14:55.985Z,6.20
2019-04-21T07:17:24.623Z,6.87
2019-04-21T07:19:55.854Z,8.67
2019-04-21T07:22:24.738Z,9.63
2019-04-21T07:24:58.676Z,8.00
2019-04-21T07:27:33.946Z,6.90
2019-04-21T07:29:58.192Z,8.40
2019-04-21T07:32:26.787Z,6.37
2019-04-21T07:34:57.662Z,6.13
2019-04-21T07:37:23.996Z,6.27
2019-04-21T07:39:54.528Z,6.97
2019-04-21T07:42:17.484Z,7.43
2019-04-21T07:44:49.534Z,7.97
2019-04-21T07:47:33.905Z,5.73
2019-04-21T07:50:07.462Z,6.53
2019-04-21T07:52:47.028Z,7.07
2019-04-21T07:55:19.979Z,6.40
2019-04-21T07:57:37.683Z,10.87
2019-04-21T08:02:40.427Z,6.13
2019-04-21T08:05:23.851Z,6.03
2019-04-21T08:10:13.883Z,5.20
2019-04-21T08:12:37.943Z,5.33
2019-04-21T08:17:41.413Z,5.53
2019-04-21T08:20:12.332Z,5.60
2019-04-21T08:22:46.796Z,4.90
2019-04-21T08:25:15.126Z,7.00
2019-04-21T08:27:50.638Z,5.23
2019-04-21T08:30:11.795Z,5.63
2019-04-21T08:32:51.484Z,6.27
2019-04-21T08:37:43.308Z,5.70
2019-04-21T08:40:19.333Z,6.73
2019-04-21T08:42:46.692Z,11.27
2019-04-21T08:45:21.783Z,6.17
2019-04-21T08:47:49.680Z,5.42
2019-04-21T08:50:15.163Z,9.55
2019-04-21T08:52:49.206Z,6.80
2019-04-21T08:55:25.185Z,5.55
2019-04-21T08:58:18.541Z,6.10
2019-04-21T09:00:56.237Z,4.90
2019-04-21T09:03:45.732Z,4.92
2019-04-21T09:06:13.729Z,7.17
2019-04-21T09:08:42.280Z,5.62
2019-04-21T09:11:11.501Z,6.92
2019-04-21T09:13:43.052Z,5.65
2019-04-21T09:16:09.746Z,5.37
2019-04-21T09:18:39.535Z,4.90
2019-04-21T09:21:14.820Z,4.72
2019-04-21T09:23:43.731Z,6.40
2019-04-21T09:26:13.831Z,6.62
2019-04-21T09:28:39.476Z,4.20
2019-04-21T09:30:58.456Z,4.40
2019-04-21T09:33:34.513Z,6.20
2019-04-21T09:36:01.017Z,4.72
2019-04-21T09:38:32.869Z,5.42
2019-04-21T09:40:56.508Z,4.10
2019-04-21T09:43:34.111Z,4.30
2019-04-21T09:45:57.167Z,4.62
2019-04-21T09:48:26.666Z,3.80
2019-04-21T09:50:57.379Z,4.42
2019-04-21T09:53:33.214Z,5.62
2019-04-21T09:56:01.057Z,3.83
2019-04-21T09:58:34.798Z,4.08
2019-04-21T10:01:11.039Z,5.15
2019-04-21T10:03:39.691Z,4.42
2019-04-21T10:05:58.721Z,3.83
2019-04-21T10:08:27.574Z,6.33
2019-04-21T10:10:56.985Z,3.72
2019-04-21T10:13:25.879Z,5.10
2019-04-21T10:15:58.957Z,3.58
2019-04-21T10:18:27.677Z,3.92
2019-04-21T10:20:57.012Z,3.95
2019-04-21T10:23:25.880Z,3.85
2019-04-21T10:25:54.708Z,3.47
2019-04-21T10:28:23.392Z,4.47
2019-04-21T10:30:52.911Z,4.25
2019-04-21T10:33:22.010Z,3.77
2019-04-21T10:35:50.908Z,3.72
2019-04-21T10:38:27.975Z,3.45
2019-04-21T10:40:49.857Z,3.45
2019-04-21T10:43:22.078Z,4.12
2019-04-21T10:45:48.907Z,3.30
2019-04-21T10:48:18.823Z,4.75
2019-04-21T10:50:47.655Z,3.98
2019-04-21T10:53:18.838Z,3.77
2019-04-21T10:55:58.953Z,4.00
2019-04-21T10:58:22.539Z,3.45
2019-04-21T11:00:52.808Z,3.52
2019-04-21T11:03:26.852Z,4.22
2019-04-21T11:06:03.323Z,5.50
2019-04-21T11:08:38.041Z,3.85
2019-04-21T11:11:03.772Z,4.05
2019-04-21T11:13:32.708Z,4.37
2019-04-21T11:16:01.749Z,3.98
2019-04-21T11:18:31.690Z,3.75
2019-04-21T11:21:00.848Z,3.47
2019-04-21T11:23:29.508Z,3.67
2019-04-21T11:25:58.301Z,3.60
2019-04-21T11:28:27.205Z,3.20
2019-04-21T11:30:57.194Z,3.98
2019-04-21T11:33:27.149Z,4.40
2019-04-21T11:35:55.715Z,3.67
2019-04-21T11:38:55.812Z,4.33
2019-04-21T11:41:09.642Z,3.87
2019-04-21T11:43:39.159Z,3.83
2019-04-21T11:46:08.595Z,3.70
2019-04-21T11:48:37.139Z,3.35
2019-04-21T11:51:06.742Z,3.60
2019-04-21T11:53:36.899Z,3.52
2019-04-21T11:56:06.946Z,3.85
2019-04-21T11:58:36.068Z,3.95
2019-04-21T12:01:05.676Z,3.62
2019-04-21T12:03:35.764Z,4.90
2019-04-21T12:06:05.765Z,3.77
2019-04-21T12:08:40.404Z,3.47
2019-04-21T12:11:05.367Z,3.58
2019-04-21T12:13:34.223Z,3.60
2019-04-21T12:16:03.208Z,3.70
2019-04-21T12:18:32.466Z,4.15
2019-04-21T12:21:03.133Z,3.50
2019-04-21T12:23:32.425Z,4.67
2019-04-21T12:26:01.385Z,3.50
2019-04-21T12:28:30.325Z,3.52
2019-04-21T12:31:00.062Z,3.58
2019-04-21T12:33:38.051Z,5.12
2019-04-21T12:36:06.860Z,4.87
2019-04-21T12:38:46.579Z,3.50
2019-04-21T12:41:06.603Z,4.05
2019-04-21T12:43:36.951Z,3.75
2019-04-21T12:46:05.875Z,3.72
2019-04-21T12:48:34.289Z,3.52
2019-04-21T12:51:03.863Z,3.60
2019-04-21T12:53:33.963Z,5.10
2019-04-21T12:56:02.596Z,3.62
2019-04-21T12:58:31.457Z,3.55
2019-04-21T13:01:00.913Z,3.90
2019-04-21T13:03:30.369Z,3.33
2019-04-21T13:05:59.265Z,3.83
2019-04-21T13:08:27.745Z,3.75
2019-04-21T13:10:58.109Z,3.72
2019-04-21T13:13:28.161Z,3.80
2019-04-21T13:15:57.699Z,3.50
2019-04-21T13:18:27.019Z,3.45
2019-04-21T13:20:56.114Z,3.70
2019-04-21T13:23:24.961Z,5.05
2019-04-21T13:25:54.124Z,3.55
2019-04-21T13:28:23.097Z,3.98
2019-04-21T13:30:51.795Z,3.60
2019-04-21T13:33:20.986Z,3.30
2019-04-21T13:35:50.932Z,3.42
2019-04-21T13:38:29.352Z,3.60
2019-04-21T13:41:11.877Z,3.37
2019-04-21T13:43:25.203Z,4.37
2019-04-21T13:45:54.083Z,4.28
2019-04-21T13:48:22.582Z,6.58
2019-04-21T13:50:51.339Z,11.55
2019-04-21T13:53:20.897Z,4.83
2019-04-21T13:55:50.860Z,4.25
2019-04-21T13:58:20.092Z,3.80
2019-04-21T14:00:50.556Z,3.90
2019-04-21T14:03:21.753Z,4.33
2019-04-21T14:05:50.516Z,3.50
2019-04-21T14:08:19.040Z,3.47
2019-04-21T14:10:49.111Z,3.55
2019-04-21T14:13:18.459Z,3.75
2019-04-21T14:15:48.838Z,3.75
2019-04-21T14:18:18.575Z,3.50
2019-04-21T14:20:47.403Z,3.90
2019-04-21T14:23:25.556Z,3.90
2019-04-21T14:25:46.292Z,3.85
2019-04-21T14:28:15.635Z,3.55
2019-04-21T14:30:44.307Z,3.60
2019-04-21T14:33:14.114Z,3.25
2019-04-21T14:35:43.104Z,3.40
2019-04-21T14:38:11.646Z,3.00
2019-04-21T14:40:41.735Z,3.33
2019-04-21T14:43:12.009Z,3.40
2019-04-21T14:45:45.441Z,3.60
2019-04-21T14:48:32.837Z,4.12
2019-04-21T14:51:06.661Z,3.58
2019-04-21T14:53:56.327Z,3.98
2019-04-21T14:56:27.007Z,6.87
2019-04-21T14:58:57.656Z,7.78
2019-04-21T15:01:26.227Z,7.28
2019-04-21T15:03:55.516Z,4.33
2019-04-21T15:06:25.427Z,5.22
2019-04-21T15:08:55.499Z,5.90
2019-04-21T15:11:24.496Z,4.78
2019-04-21T15:13:53.654Z,4.47
2019-04-21T15:16:22.905Z,4.28
2019-04-21T15:18:52.694Z,4.65
2019-04-21T15:21:21.733Z,3.55
2019-04-21T15:23:50.769Z,3.92
2019-04-21T15:26:20.099Z,3.47
2019-04-21T15:28:48.945Z,4.10
2019-04-21T15:31:23.876Z,3.67
2019-04-21T15:33:47.849Z,3.00
2019-04-21T15:36:16.734Z,3.35
2019-04-21T15:38:45.793Z,2.98
2019-04-21T15:41:16.377Z,3.08
2019-04-21T15:43:44.912Z,5.45
2019-04-21T15:46:13.492Z,3.12
2019-04-21T15:48:42.528Z,3.35
2019-04-21T15:51:11.215Z,3.65
2019-04-21T15:53:41.787Z,3.25
2019-04-21T15:56:12.995Z,3.50
2019-04-21T15:58:46.532Z,4.70
2019-04-21T16:01:25.671Z,3.50
2019-04-21T16:03:56.892Z,3.08
2019-04-21T16:06:25.683Z,3.22
2019-04-21T16:08:57.105Z,2.92
2019-04-21T16:11:24.371Z,2.75
2019-04-21T16:13:52.783Z,3.72
2019-04-21T16:16:23.599Z,2.90
2019-04-21T16:18:52.164Z,3.45
2019-04-21T16:21:22.012Z,3.40
2019-04-21T16:23:51.141Z,3.60
2019-04-21T16:26:20.368Z,3.72
2019-04-21T16:28:49.257Z,3.12
2019-04-21T16:31:18.469Z,5.12
2019-04-21T16:33:47.174Z,2.95
2019-04-21T16:36:17.106Z,3.20
2019-04-21T16:38:47.135Z,3.75
2019-04-21T16:41:16.139Z,3.37
2019-04-21T16:43:45.048Z,3.40
2019-04-21T16:46:13.837Z,4.20
2019-04-21T16:48:44.050Z,3.25
2019-04-21T16:51:13.213Z,2.80
2019-04-21T16:53:43.984Z,3.17
2019-04-21T16:56:29.447Z,3.75
2019-04-21T16:59:14.889Z,3.30
2019-04-21T17:01:44.667Z,3.50
2019-04-21T17:04:13.203Z,3.55
2019-04-21T17:06:42.889Z,3.58
2019-04-21T17:09:12.670Z,3.83
2019-04-21T17:11:43.627Z,4.08
2019-04-21T17:14:27.244Z,4.05
2019-04-21T17:17:03.710Z,3.72
2019-04-21T17:19:21.314Z,5.53
2019-04-21T17:21:43.692Z,3.90
2019-04-21T17:24:12.710Z,7.78
2019-04-21T17:26:44.119Z,4.70
2019-04-21T17:29:12.365Z,4.80
2019-04-21T17:31:41.380Z,5.22
2019-04-21T17:34:16.171Z,3.77
2019-04-21T17:36:41.175Z,3.72
2019-04-21T17:39:11.102Z,3.02
2019-04-21T17:41:54.150Z,2.95
2019-04-21T17:44:10.766Z,2.37
2019-04-21T17:46:46.555Z,2.55
2019-04-21T17:49:10.833Z,2.30
2019-04-21T17:52:01.126Z,3.35
2019-04-21T17:54:35.817Z,4.53
2019-04-21T17:57:21.680Z,2.80
2019-04-21T17:59:56.872Z,6.20
2019-04-21T18:02:24.782Z,2.80
2019-04-21T18:04:57.707Z,2.87
2019-04-21T18:07:26.146Z,2.97
2019-04-21T18:10:00.865Z,3.60
2019-04-21T18:12:41.483Z,5.10
2019-04-21T18:15:16.766Z,6.30
2019-04-21T18:17:28.802Z,5.17
2019-04-21T18:19:57.463Z,4.13
2019-04-21T18:22:41.502Z,3.70
2019-04-21T18:25:25.222Z,4.47
2019-04-21T18:27:42.696Z,3.37
2019-04-21T18:30:38.157Z,3.03
2019-04-21T18:33:17.403Z,3.10
2019-04-21T18:35:57.904Z,4.77
2019-04-21T18:39:13.993Z,2.93
2019-04-21T18:41:23.654Z,3.40
2019-04-21T18:44:30.329Z,4.07
2019-04-21T18:47:01.292Z,2.90
2019-04-21T18:49:13.130Z,2.80
2019-04-21T18:51:57.298Z,3.00
2019-04-21T18:54:37.138Z,3.10
2019-04-21T18:57:03.245Z,2.50
2019-04-21T18:59:31.391Z,2.80
2019-04-21T19:01:59.954Z,2.93
2019-04-21T19:04:28.722Z,4.40
2019-04-21T19:07:06.606Z,3.40
2019-04-21T19:10:07.242Z,3.20
2019-04-21T19:12:17.794Z,6.13
2019-04-21T19:14:40.070Z,3.27
2019-04-21T19:22:13.572Z,5.13
2019-04-21T19:24:48.597Z,4.37
2019-04-21T19:27:21.203Z,4.17
2019-04-21T19:29:54.086Z,3.00
2019-04-21T19:32:19.787Z,5.93
2019-04-21T19:34:32.380Z,3.27
2019-04-21T19:37:06.083Z,4.17
2019-04-21T19:39:42.796Z,4.50
2019-04-21T19:42:08.633Z,6.53
2019-04-21T19:44:47.090Z,6.63
2019-04-21T19:47:25.894Z,5.73
2019-04-21T19:49:49.512Z,6.27
2019-04-21T19:52:06.591Z,5.47
2019-04-21T19:54:36.259Z,6.13
2019-04-21T19:57:00.833Z,4.53
2019-04-21T19:59:36.651Z,4.97
2019-04-21T20:02:00.281Z,3.60
2019-04-21T20:04:38.499Z,3.63
2019-04-21T20:07:10.428Z,3.40
2019-04-21T20:09:47.890Z,3.67
2019-04-21T20:12:18.478Z,3.50
2019-04-21T20:14:57.611Z,3.67
2019-04-21T20:17:13.696Z,3.50
2019-04-21T20:19:32.156Z,3.40
2019-04-21T20:22:00.963Z,3.83
2019-04-21T20:24:33.989Z,4.33
2019-04-21T20:27:07.928Z,6.40
2019-04-21T20:29:49.896Z,3.37
2019-04-21T20:32:28.018Z,3.07
2019-04-21T20:34:56.210Z,2.87
2019-04-21T20:37:20.727Z,3.80
2019-04-21T20:39:44.001Z,3.90
2019-04-21T20:42:19.430Z,3.03
2019-04-21T20:44:57.405Z,3.53
2019-04-21T20:47:18.622Z,4.93
2019-04-21T20:49:45.017Z,3.60
2019-04-21T20:52:24.466Z,3.60
2019-04-21T20:54:48.189Z,5.77
2019-04-21T20:57:24.355Z,5.37
2019-04-21T20:59:53.036Z,5.80
2019-04-21T21:02:20.117Z,3.53
2019-04-21T21:04:45.785Z,3.87
2019-04-21T21:07:36.359Z,3.70
2019-04-21T21:10:01.660Z,3.73
2019-04-21T21:12:37.114Z,3.30
2019-04-21T21:14:52.963Z,3.20
2019-04-21T21:17:40.797Z,3.57
2019-04-21T21:20:00.787Z,3.27
2019-04-21T21:22:23.202Z,2.93
2019-04-21T21:24:57.066Z,3.03
2019-04-21T21:27:25.490Z,3.40
2019-04-21T21:29:56.149Z,3.77
2019-04-21T21:32:27.075Z,3.27
2019-04-21T21:34:56.938Z,5.30
2019-04-21T21:37:34.381Z,6.50
2019-04-21T21:40:06.079Z,3.47
2019-04-21T21:42:13.293Z,4.10
2019-04-21T21:44:49.541Z,4.80
2019-04-21T21:47:25.279Z,5.57
2019-04-21T21:49:57.814Z,3.40
2019-04-21T21:52:29.696Z,3.60
2019-04-21T21:54:43.587Z,4.27
2019-04-21T21:57:12.400Z,5.90
2019-04-21T21:59:42.188Z,4.57
2019-04-21T22:02:17.072Z,4.47
2019-04-21T22:04:52.889Z,3.57
2019-04-21T22:07:15.736Z,4.57
2019-04-21T22:09:42.012Z,3.53
2019-04-21T22:12:12.375Z,4.63
2019-04-21T22:14:45.512Z,4.37
2019-04-21T22:17:33.223Z,3.37
2019-04-21T22:20:03.586Z,3.70
2019-04-21T22:22:27.673Z,4.27
2019-04-21T22:24:54.468Z,3.73
2019-04-21T22:27:14.857Z,6.23
2019-04-21T22:29:48.199Z,3.20
2019-04-21T22:32:19.198Z,3.43
2019-04-21T22:34:52.387Z,3.30
2019-04-21T22:37:30.262Z,3.40
2019-04-21T22:39:58.464Z,3.40
2019-04-21T22:42:21.540Z,3.50
2019-04-21T22:44:46.200Z,6.00
2019-04-21T22:47:22.407Z,3.93
2019-04-21T22:49:48.685Z,3.30
2019-04-21T22:52:20.953Z,3.47
2019-04-21T22:54:49.312Z,5.23
2019-04-21T22:57:21.997Z,4.07
2019-04-21T22:59:54.877Z,5.70
2019-04-21T23:02:24.738Z,3.73
2019-04-21T23:04:54.254Z,3.90
2019-04-21T23:07:22.479Z,3.73
2019-04-21T23:09:49.894Z,4.23
2019-04-21T23:12:24.520Z,4.43
2019-04-21T23:14:57.416Z,3.83
2019-04-21T23:17:38.919Z,5.20
2019-04-21T23:20:10.500Z,4.10
2019-04-21T23:22:48.852Z,5.03
2019-04-21T23:25:07.503Z,5.50
2019-04-21T23:27:37.798Z,6.53
2019-04-21T23:30:20.173Z,5.97
2019-04-21T23:32:34.081Z,4.37
2019-04-21T23:34:55.638Z,4.07
2019-04-21T23:37:25.718Z,4.60
2019-04-21T23:40:03.017Z,5.83
2019-04-21T23:42:32.795Z,4.37
2019-04-21T23:44:58.061Z,4.90
2019-04-21T23:47:34.590Z,4.70
2019-04-21T23:50:02.547Z,5.10
2019-04-21T23:52:25.637Z,6.30
2019-04-21T23:54:55.543Z,7.23
2019-04-21T23:57:30.444Z,5.27
2019-04-21T23:59:57.398Z,4.80
